Auburndale, Florida
Current Conditions -  °F | °C
As of 7:53 AM on Tuesday 21 Oct 2014 (Local Time) from KGIF Reporting Station
Clear Clear  
Wind Chill: 72°   Ceiling: Unl
Heat Index: 72°   Visibility: 10mi
Dew Point: 69°   Wind: 5mph
Humidity: 91%   Direction: 160°SSE
Pressure: 29.97"   Gusts: NA
Location:  28.06°N, 81.78°W
Report Text: KGIF 211153Z AUTO 16004KT 10SM CLR 22/21 A2997 RMK AO2 SLP146 T02220206 10239 20217 53009
Loading
Personal Weather Stations






























Interactive Weather Map
Tropical Storm Tracking
New forecast layout! Learn more

10-Day Weather Forecast

Advertisements
Track Severe Weather on mobile